sensor_id;sensor_type;location;lat;lon;timestamp;P1;durP1;ratioP1;P2;durP2;ratioP2
71204;SDS011;58935;54.498;18.544;2023-07-24T00:01:18;9.00;;;7.50;;
71204;SDS011;58935;54.498;18.544;2023-07-24T00:03:44;8.10;;;7.20;;
71204;SDS011;58935;54.498;18.544;2023-07-24T00:06:10;9.00;;;7.20;;
71204;SDS011;58935;54.498;18.544;2023-07-24T00:08:35;9.20;;;6.90;;
71204;SDS011;58935;54.498;18.544;2023-07-24T00:11:01;13.90;;;7.70;;
71204;SDS011;58935;54.498;18.544;2023-07-24T00:13:29;10.50;;;7.20;;
71204;SDS011;58935;54.498;18.544;2023-07-24T00:15:56;10.40;;;8.00;;
71204;SDS011;58935;54.498;18.544;2023-07-24T00:18:22;11.10;;;7.00;;
71204;SDS011;58935;54.498;18.544;2023-07-24T00:20:47;8.10;;;6.90;;
71204;SDS011;58935;54.498;18.544;2023-07-24T00:23:13;8.40;;;7.50;;
71204;SDS011;58935;54.498;18.544;2023-07-24T00:25:38;8.90;;;7.60;;
71204;SDS011;58935;54.498;18.544;2023-07-24T00:28:03;10.20;;;7.70;;
71204;SDS011;58935;54.498;18.544;2023-07-24T00:30:29;9.30;;;7.50;;
71204;SDS011;58935;54.498;18.544;2023-07-24T00:32:54;9.60;;;7.90;;
71204;SDS011;58935;54.498;18.544;2023-07-24T00:35:19;12.20;;;7.20;;
71204;SDS011;58935;54.498;18.544;2023-07-24T00:37:45;15.10;;;7.30;;
71204;SDS011;58935;54.498;18.544;2023-07-24T00:40:10;8.60;;;6.80;;
71204;SDS011;58935;54.498;18.544;2023-07-24T00:42:36;12.20;;;7.40;;
71204;SDS011;58935;54.498;18.544;2023-07-24T00:45:02;11.40;;;7.40;;
71204;SDS011;58935;54.498;18.544;2023-07-24T00:47:27;8.50;;;7.00;;
71204;SDS011;58935;54.498;18.544;2023-07-24T00:49:54;8.70;;;6.90;;
71204;SDS011;58935;54.498;18.544;2023-07-24T00:52:20;9.00;;;6.70;;
71204;SDS011;58935;54.498;18.544;2023-07-24T00:54:46;11.60;;;7.10;;
71204;SDS011;58935;54.498;18.544;2023-07-24T00:57:12;8.70;;;6.80;;
71204;SDS011;58935;54.498;18.544;2023-07-24T00:59:39;7.80;;;6.50;;
71204;SDS011;58935;54.498;18.544;2023-07-24T01:02:07;11.00;;;7.40;;
71204;SDS011;58935;54.498;18.544;2023-07-24T01:04:34;8.50;;;7.00;;
71204;SDS011;58935;54.498;18.544;2023-07-24T01:06:59;12.50;;;7.10;;
71204;SDS011;58935;54.498;18.544;2023-07-24T01:09:25;12.10;;;6.90;;
71204;SDS011;58935;54.498;18.544;2023-07-24T01:11:56;7.60;;;6.60;;
71204;SDS011;58935;54.498;18.544;2023-07-24T01:14:36;8.60;;;6.40;;
71204;SDS011;58935;54.498;18.544;2023-07-24T01:17:14;9.10;;;6.90;;
71204;SDS011;58935;54.498;18.544;2023-07-24T01:19:47;10.20;;;6.60;;
71204;SDS011;58935;54.498;18.544;2023-07-24T01:25:27;9.90;;;6.50;;
71204;SDS011;58935;54.498;18.544;2023-07-24T01:27:57;10.50;;;7.20;;
71204;SDS011;58935;54.498;18.544;2023-07-24T01:30:22;11.00;;;7.00;;
71204;SDS011;58935;54.498;18.544;2023-07-24T01:32:49;8.20;;;6.90;;
71204;SDS011;58935;54.498;18.544;2023-07-24T01:35:14;8.20;;;7.10;;
71204;SDS011;58935;54.498;18.544;2023-07-24T01:37:41;9.30;;;6.70;;
71204;SDS011;58935;54.498;18.544;2023-07-24T01:40:10;11.90;;;7.20;;
71204;SDS011;58935;54.498;18.544;2023-07-24T01:42:36;8.10;;;6.60;;
71204;SDS011;58935;54.498;18.544;2023-07-24T01:45:03;11.80;;;6.30;;
71204;SDS011;58935;54.498;18.544;2023-07-24T01:47:29;12.20;;;7.30;;
71204;SDS011;58935;54.498;18.544;2023-07-24T01:49:55;8.10;;;6.50;;
71204;SDS011;58935;54.498;18.544;2023-07-24T01:52:21;13.30;;;6.90;;
71204;SDS011;58935;54.498;18.544;2023-07-24T01:54:47;9.10;;;6.40;;
71204;SDS011;58935;54.498;18.544;2023-07-24T01:57:13;9.80;;;6.60;;
71204;SDS011;58935;54.498;18.544;2023-07-24T01:59:38;8.60;;;6.80;;
71204;SDS011;58935;54.498;18.544;2023-07-24T02:02:04;7.80;;;6.60;;
71204;SDS011;58935;54.498;18.544;2023-07-24T02:04:29;7.90;;;7.10;;
71204;SDS011;58935;54.498;18.544;2023-07-24T02:06:55;10.60;;;7.40;;
71204;SDS011;58935;54.498;18.544;2023-07-24T02:09:20;7.30;;;6.60;;
71204;SDS011;58935;54.498;18.544;2023-07-24T02:11:46;9.50;;;7.00;;
71204;SDS011;58935;54.498;18.544;2023-07-24T02:14:13;7.20;;;6.30;;
71204;SDS011;58935;54.498;18.544;2023-07-24T02:16:40;9.90;;;6.40;;
71204;SDS011;58935;54.498;18.544;2023-07-24T02:19:06;9.70;;;7.30;;
71204;SDS011;58935;54.498;18.544;2023-07-24T02:21:32;7.50;;;6.60;;
71204;SDS011;58935;54.498;18.544;2023-07-24T02:23:57;14.90;;;7.60;;
71204;SDS011;58935;54.498;18.544;2023-07-24T02:26:23;9.30;;;6.90;;
71204;SDS011;58935;54.498;18.544;2023-07-24T02:28:48;8.10;;;6.70;;
71204;SDS011;58935;54.498;18.544;2023-07-24T02:31:14;7.60;;;6.80;;
71204;SDS011;58935;54.498;18.544;2023-07-24T02:33:39;10.80;;;6.80;;
71204;SDS011;58935;54.498;18.544;2023-07-24T02:36:05;8.00;;;7.10;;
71204;SDS011;58935;54.498;18.544;2023-07-24T02:38:30;13.00;;;7.10;;
71204;SDS011;58935;54.498;18.544;2023-07-24T02:40:55;7.30;;;6.50;;
71204;SDS011;58935;54.498;18.544;2023-07-24T02:43:21;8.90;;;6.60;;
71204;SDS011;58935;54.498;18.544;2023-07-24T02:45:46;9.10;;;6.50;;
71204;SDS011;58935;54.498;18.544;2023-07-24T02:48:12;7.60;;;6.60;;
71204;SDS011;58935;54.498;18.544;2023-07-24T02:50:37;8.30;;;7.10;;
71204;SDS011;58935;54.498;18.544;2023-07-24T02:53:02;8.10;;;7.10;;
71204;SDS011;58935;54.498;18.544;2023-07-24T02:55:28;8.30;;;7.10;;
71204;SDS011;58935;54.498;18.544;2023-07-24T02:57:53;8.20;;;7.40;;
71204;SDS011;58935;54.498;18.544;2023-07-24T03:00:19;11.80;;;7.20;;
71204;SDS011;58935;54.498;18.544;2023-07-24T03:02:44;7.10;;;6.20;;
71204;SDS011;58935;54.498;18.544;2023-07-24T03:05:10;7.50;;;6.40;;
71204;SDS011;58935;54.498;18.544;2023-07-24T03:07:35;8.60;;;7.00;;
71204;SDS011;58935;54.498;18.544;2023-07-24T03:10:01;9.70;;;7.40;;
71204;SDS011;58935;54.498;18.544;2023-07-24T03:12:28;10.30;;;7.00;;
71204;SDS011;58935;54.498;18.544;2023-07-24T03:14:53;11.30;;;7.40;;
71204;SDS011;58935;54.498;18.544;2023-07-24T03:17:18;10.80;;;6.90;;
71204;SDS011;58935;54.498;18.544;2023-07-24T03:19:44;11.20;;;7.50;;
71204;SDS011;58935;54.498;18.544;2023-07-24T03:22:09;8.40;;;7.20;;
71204;SDS011;58935;54.498;18.544;2023-07-24T03:24:35;8.20;;;6.10;;
71204;SDS011;58935;54.498;18.544;2023-07-24T03:27:01;10.50;;;6.40;;
71204;SDS011;58935;54.498;18.544;2023-07-24T03:29:27;7.90;;;6.80;;
71204;SDS011;58935;54.498;18.544;2023-07-24T03:31:52;8.10;;;6.70;;
71204;SDS011;58935;54.498;18.544;2023-07-24T03:34:18;13.60;;;6.70;;
71204;SDS011;58935;54.498;18.544;2023-07-24T03:36:43;13.90;;;7.60;;
71204;SDS011;58935;54.498;18.544;2023-07-24T03:39:10;11.10;;;7.10;;
71204;SDS011;58935;54.498;18.544;2023-07-24T03:41:36;8.10;;;6.70;;
71204;SDS011;58935;54.498;18.544;2023-07-24T03:44:02;8.60;;;6.70;;
71204;SDS011;58935;54.498;18.544;2023-07-24T03:46:28;13.90;;;7.20;;
71204;SDS011;58935;54.498;18.544;2023-07-24T03:48:53;9.00;;;7.00;;
71204;SDS011;58935;54.498;18.544;2023-07-24T03:51:18;9.10;;;6.80;;
71204;SDS011;58935;54.498;18.544;2023-07-24T03:53:44;9.80;;;7.40;;
71204;SDS011;58935;54.498;18.544;2023-07-24T03:56:09;10.80;;;6.50;;
71204;SDS011;58935;54.498;18.544;2023-07-24T03:58:34;9.00;;;6.90;;
71204;SDS011;58935;54.498;18.544;2023-07-24T04:01:00;9.30;;;6.40;;
71204;SDS011;58935;54.498;18.544;2023-07-24T04:03:25;6.30;;;5.50;;
71204;SDS011;58935;54.498;18.544;2023-07-24T04:05:51;7.70;;;6.40;;
71204;SDS011;58935;54.498;18.544;2023-07-24T04:08:16;8.40;;;6.20;;
71204;SDS011;58935;54.498;18.544;2023-07-24T04:10:41;7.90;;;6.40;;
71204;SDS011;58935;54.498;18.544;2023-07-24T04:13:06;8.10;;;6.50;;
71204;SDS011;58935;54.498;18.544;2023-07-24T04:15:32;7.60;;;6.70;;
71204;SDS011;58935;54.498;18.544;2023-07-24T04:17:57;8.70;;;6.40;;
71204;SDS011;58935;54.498;18.544;2023-07-24T04:20:23;7.70;;;6.80;;
71204;SDS011;58935;54.498;18.544;2023-07-24T04:22:48;8.70;;;6.00;;
71204;SDS011;58935;54.498;18.544;2023-07-24T04:25:13;7.20;;;6.50;;
71204;SDS011;58935;54.498;18.544;2023-07-24T04:27:39;7.70;;;6.00;;
71204;SDS011;58935;54.498;18.544;2023-07-24T04:30:05;8.20;;;6.50;;
71204;SDS011;58935;54.498;18.544;2023-07-24T04:32:31;6.80;;;5.70;;
71204;SDS011;58935;54.498;18.544;2023-07-24T04:34:57;10.40;;;6.20;;
71204;SDS011;58935;54.498;18.544;2023-07-24T04:37:22;8.90;;;7.00;;
71204;SDS011;58935;54.498;18.544;2023-07-24T04:39:47;8.00;;;6.30;;
71204;SDS011;58935;54.498;18.544;2023-07-24T04:42:13;6.70;;;6.10;;
71204;SDS011;58935;54.498;18.544;2023-07-24T04:44:38;11.80;;;6.80;;
71204;SDS011;58935;54.498;18.544;2023-07-24T04:47:03;7.30;;;6.60;;
71204;SDS011;58935;54.498;18.544;2023-07-24T04:49:29;9.80;;;6.30;;
71204;SDS011;58935;54.498;18.544;2023-07-24T04:51:56;12.70;;;6.70;;
71204;SDS011;58935;54.498;18.544;2023-07-24T04:54:21;10.10;;;6.00;;
71204;SDS011;58935;54.498;18.544;2023-07-24T04:56:46;6.80;;;5.80;;
71204;SDS011;58935;54.498;18.544;2023-07-24T04:59:12;9.00;;;6.20;;
71204;SDS011;58935;54.498;18.544;2023-07-24T05:01:37;8.70;;;6.30;;
71204;SDS011;58935;54.498;18.544;2023-07-24T05:04:03;8.60;;;6.00;;
71204;SDS011;58935;54.498;18.544;2023-07-24T05:06:28;6.90;;;6.00;;
71204;SDS011;58935;54.498;18.544;2023-07-24T05:08:54;8.20;;;5.70;;
71204;SDS011;58935;54.498;18.544;2023-07-24T05:11:19;9.50;;;5.70;;
71204;SDS011;58935;54.498;18.544;2023-07-24T05:13:45;6.30;;;5.20;;
71204;SDS011;58935;54.498;18.544;2023-07-24T05:16:10;9.50;;;5.50;;
71204;SDS011;58935;54.498;18.544;2023-07-24T05:18:35;7.70;;;4.90;;
71204;SDS011;58935;54.498;18.544;2023-07-24T05:21:01;8.10;;;6.00;;
71204;SDS011;58935;54.498;18.544;2023-07-24T05:23:26;7.30;;;5.60;;
71204;SDS011;58935;54.498;18.544;2023-07-24T05:26:03;12.90;;;5.90;;
71204;SDS011;58935;54.498;18.544;2023-07-24T05:28:30;11.90;;;5.20;;
71204;SDS011;58935;54.498;18.544;2023-07-24T05:31:04;6.70;;;5.40;;
71204;SDS011;58935;54.498;18.544;2023-07-24T05:33:31;7.60;;;5.40;;
71204;SDS011;58935;54.498;18.544;2023-07-24T05:35:58;5.80;;;5.30;;
71204;SDS011;58935;54.498;18.544;2023-07-24T05:38:24;6.20;;;5.20;;
71204;SDS011;58935;54.498;18.544;2023-07-24T05:41:01;6.80;;;5.40;;
71204;SDS011;58935;54.498;18.544;2023-07-24T05:43:29;5.80;;;5.20;;
71204;SDS011;58935;54.498;18.544;2023-07-24T05:45:56;5.80;;;5.00;;
71204;SDS011;58935;54.498;18.544;2023-07-24T05:48:23;10.40;;;5.50;;
71204;SDS011;58935;54.498;18.544;2023-07-24T05:50:50;8.40;;;5.30;;
71204;SDS011;58935;54.498;18.544;2023-07-24T05:53:16;11.00;;;5.10;;
71204;SDS011;58935;54.498;18.544;2023-07-24T05:55:42;8.30;;;5.10;;
71204;SDS011;58935;54.498;18.544;2023-07-24T05:58:09;6.50;;;5.00;;
71204;SDS011;58935;54.498;18.544;2023-07-24T06:00:35;9.10;;;5.10;;
71204;SDS011;58935;54.498;18.544;2023-07-24T06:03:02;7.60;;;5.30;;
71204;SDS011;58935;54.498;18.544;2023-07-24T06:05:28;5.00;;;4.50;;
71204;SDS011;58935;54.498;18.544;2023-07-24T06:07:54;7.30;;;4.50;;
71204;SDS011;58935;54.498;18.544;2023-07-24T06:10:19;5.50;;;4.80;;
71204;SDS011;58935;54.498;18.544;2023-07-24T06:12:45;6.60;;;4.90;;
71204;SDS011;58935;54.498;18.544;2023-07-24T06:15:10;7.00;;;4.70;;
71204;SDS011;58935;54.498;18.544;2023-07-24T06:17:35;5.70;;;4.00;;
71204;SDS011;58935;54.498;18.544;2023-07-24T06:20:01;11.70;;;3.60;;
71204;SDS011;58935;54.498;18.544;2023-07-24T06:22:26;6.00;;;4.00;;
71204;SDS011;58935;54.498;18.544;2023-07-24T06:24:51;5.80;;;4.00;;
71204;SDS011;58935;54.498;18.544;2023-07-24T06:27:17;5.80;;;4.00;;
71204;SDS011;58935;54.498;18.544;2023-07-24T06:29:42;7.70;;;3.90;;
71204;SDS011;58935;54.498;18.544;2023-07-24T06:32:07;4.30;;;3.60;;
71204;SDS011;58935;54.498;18.544;2023-07-24T06:34:34;11.00;;;4.10;;
71204;SDS011;58935;54.498;18.544;2023-07-24T06:37:00;4.60;;;3.40;;
71204;SDS011;58935;54.498;18.544;2023-07-24T06:39:25;8.40;;;3.90;;
71204;SDS011;58935;54.498;18.544;2023-07-24T06:41:52;4.50;;;3.80;;
71204;SDS011;58935;54.498;18.544;2023-07-24T06:44:18;5.60;;;3.60;;
71204;SDS011;58935;54.498;18.544;2023-07-24T06:46:43;7.60;;;3.50;;
71204;SDS011;58935;54.498;18.544;2023-07-24T06:49:09;5.10;;;3.40;;
71204;SDS011;58935;54.498;18.544;2023-07-24T06:51:35;10.50;;;3.10;;
71204;SDS011;58935;54.498;18.544;2023-07-24T06:54:00;3.60;;;3.30;;
71204;SDS011;58935;54.498;18.544;2023-07-24T06:56:26;11.40;;;3.80;;
71204;SDS011;58935;54.498;18.544;2023-07-24T06:58:51;8.20;;;3.60;;
71204;SDS011;58935;54.498;18.544;2023-07-24T07:01:16;6.60;;;3.90;;
71204;SDS011;58935;54.498;18.544;2023-07-24T07:03:42;4.20;;;3.80;;
71204;SDS011;58935;54.498;18.544;2023-07-24T07:06:07;4.00;;;3.70;;
71204;SDS011;58935;54.498;18.544;2023-07-24T07:08:34;7.20;;;4.10;;
71204;SDS011;58935;54.498;18.544;2023-07-24T07:11:00;4.10;;;3.60;;
71204;SDS011;58935;54.498;18.544;2023-07-24T07:13:26;8.80;;;3.60;;
71204;SDS011;58935;54.498;18.544;2023-07-24T07:15:52;6.30;;;3.80;;
71204;SDS011;58935;54.498;18.544;2023-07-24T07:18:17;5.60;;;3.80;;
71204;SDS011;58935;54.498;18.544;2023-07-24T07:20:47;5.50;;;4.00;;
71204;SDS011;58935;54.498;18.544;2023-07-24T07:23:14;8.60;;;3.90;;
71204;SDS011;58935;54.498;18.544;2023-07-24T07:25:40;4.30;;;3.70;;
71204;SDS011;58935;54.498;18.544;2023-07-24T07:28:08;4.40;;;3.80;;
71204;SDS011;58935;54.498;18.544;2023-07-24T07:30:34;7.10;;;4.00;;
71204;SDS011;58935;54.498;18.544;2023-07-24T07:33:00;5.80;;;3.60;;
71204;SDS011;58935;54.498;18.544;2023-07-24T07:35:26;6.90;;;3.70;;
71204;SDS011;58935;54.498;18.544;2023-07-24T07:37:51;5.20;;;3.70;;
71204;SDS011;58935;54.498;18.544;2023-07-24T07:40:17;4.30;;;3.50;;
71204;SDS011;58935;54.498;18.544;2023-07-24T07:42:42;12.90;;;4.00;;
71204;SDS011;58935;54.498;18.544;2023-07-24T07:45:10;3.90;;;3.30;;
71204;SDS011;58935;54.498;18.544;2023-07-24T07:47:36;4.20;;;3.70;;
71204;SDS011;58935;54.498;18.544;2023-07-24T07:50:03;4.40;;;3.40;;
71204;SDS011;58935;54.498;18.544;2023-07-24T07:52:28;3.80;;;3.10;;
71204;SDS011;58935;54.498;18.544;2023-07-24T07:54:53;7.70;;;3.10;;
71204;SDS011;58935;54.498;18.544;2023-07-24T07:57:19;3.40;;;3.10;;
71204;SDS011;58935;54.498;18.544;2023-07-24T07:59:44;3.80;;;3.50;;
71204;SDS011;58935;54.498;18.544;2023-07-24T08:02:10;4.80;;;3.20;;
71204;SDS011;58935;54.498;18.544;2023-07-24T08:04:35;4.60;;;3.30;;
71204;SDS011;58935;54.498;18.544;2023-07-24T08:07:00;3.20;;;2.70;;
71204;SDS011;58935;54.498;18.544;2023-07-24T08:09:26;4.30;;;3.60;;
71204;SDS011;58935;54.498;18.544;2023-07-24T08:11:51;3.50;;;3.10;;
71204;SDS011;58935;54.498;18.544;2023-07-24T08:14:17;3.70;;;3.40;;
71204;SDS011;58935;54.498;18.544;2023-07-24T08:16:43;6.40;;;3.40;;
71204;SDS011;58935;54.498;18.544;2023-07-24T08:19:09;6.70;;;3.30;;
71204;SDS011;58935;54.498;18.544;2023-07-24T08:21:34;3.70;;;3.40;;
71204;SDS011;58935;54.498;18.544;2023-07-24T08:24:01;7.30;;;2.90;;
71204;SDS011;58935;54.498;18.544;2023-07-24T08:26:28;6.00;;;3.70;;
71204;SDS011;58935;54.498;18.544;2023-07-24T08:28:53;3.50;;;3.20;;
71204;SDS011;58935;54.498;18.544;2023-07-24T08:31:18;7.50;;;3.30;;
71204;SDS011;58935;54.498;18.544;2023-07-24T08:33:44;5.50;;;3.30;;
71204;SDS011;58935;54.498;18.544;2023-07-24T08:36:09;4.50;;;3.40;;
71204;SDS011;58935;54.498;18.544;2023-07-24T08:38:36;6.30;;;2.80;;
71204;SDS011;58935;54.498;18.544;2023-07-24T08:41:07;5.20;;;3.10;;
71204;SDS011;58935;54.498;18.544;2023-07-24T08:43:36;3.90;;;3.10;;
71204;SDS011;58935;54.498;18.544;2023-07-24T08:46:04;3.40;;;3.10;;
71204;SDS011;58935;54.498;18.544;2023-07-24T08:48:32;5.20;;;2.60;;
71204;SDS011;58935;54.498;18.544;2023-07-24T08:51:09;3.40;;;3.10;;
71204;SDS011;58935;54.498;18.544;2023-07-24T08:53:38;3.40;;;3.10;;
71204;SDS011;58935;54.498;18.544;2023-07-24T08:56:08;6.20;;;3.10;;
71204;SDS011;58935;54.498;18.544;2023-07-24T08:58:35;4.60;;;3.40;;
71204;SDS011;58935;54.498;18.544;2023-07-24T09:01:03;3.70;;;2.90;;
71204;SDS011;58935;54.498;18.544;2023-07-24T09:03:30;3.60;;;3.10;;
71204;SDS011;58935;54.498;18.544;2023-07-24T09:05:57;3.60;;;3.00;;
71204;SDS011;58935;54.498;18.544;2023-07-24T09:08:29;4.30;;;3.10;;
71204;SDS011;58935;54.498;18.544;2023-07-24T09:11:01;3.40;;;2.90;;
71204;SDS011;58935;54.498;18.544;2023-07-24T09:13:28;2.90;;;2.70;;
71204;SDS011;58935;54.498;18.544;2023-07-24T09:15:54;3.80;;;3.20;;
71204;SDS011;58935;54.498;18.544;2023-07-24T09:18:20;3.20;;;2.60;;
71204;SDS011;58935;54.498;18.544;2023-07-24T09:20:47;6.20;;;3.20;;
71204;SDS011;58935;54.498;18.544;2023-07-24T09:23:13;6.40;;;3.00;;
71204;SDS011;58935;54.498;18.544;2023-07-24T09:25:42;3.00;;;2.70;;
71204;SDS011;58935;54.498;18.544;2023-07-24T09:28:11;3.20;;;2.70;;
71204;SDS011;58935;54.498;18.544;2023-07-24T09:30:38;6.10;;;3.00;;
71204;SDS011;58935;54.498;18.544;2023-07-24T09:33:06;6.20;;;2.90;;
71204;SDS011;58935;54.498;18.544;2023-07-24T09:35:32;3.40;;;3.10;;
71204;SDS011;58935;54.498;18.544;2023-07-24T09:38:03;4.30;;;2.60;;
71204;SDS011;58935;54.498;18.544;2023-07-24T09:40:38;3.60;;;2.40;;
71204;SDS011;58935;54.498;18.544;2023-07-24T09:43:20;4.60;;;2.50;;
71204;SDS011;58935;54.498;18.544;2023-07-24T09:45:51;3.50;;;2.70;;
71204;SDS011;58935;54.498;18.544;2023-07-24T09:48:20;2.80;;;2.50;;
71204;SDS011;58935;54.498;18.544;2023-07-24T09:50:47;2.50;;;2.30;;
71204;SDS011;58935;54.498;18.544;2023-07-24T09:53:20;2.80;;;2.50;;
71204;SDS011;58935;54.498;18.544;2023-07-24T09:58:23;2.90;;;2.50;;
71204;SDS011;58935;54.498;18.544;2023-07-24T10:00:52;2.90;;;2.40;;
71204;SDS011;58935;54.498;18.544;2023-07-24T10:03:19;6.60;;;2.70;;
71204;SDS011;58935;54.498;18.544;2023-07-24T10:05:47;5.40;;;2.80;;
71204;SDS011;58935;54.498;18.544;2023-07-24T10:08:18;5.50;;;2.60;;
71204;SDS011;58935;54.498;18.544;2023-07-24T10:10:45;3.60;;;2.90;;
71204;SDS011;58935;54.498;18.544;2023-07-24T10:13:13;5.00;;;2.60;;
71204;SDS011;58935;54.498;18.544;2023-07-24T10:15:41;4.30;;;3.30;;
71204;SDS011;58935;54.498;18.544;2023-07-24T10:18:08;10.40;;;3.20;;
71204;SDS011;58935;54.498;18.544;2023-07-24T10:20:36;3.80;;;2.70;;
71204;SDS011;58935;54.498;18.544;2023-07-24T10:23:04;5.40;;;2.90;;
71204;SDS011;58935;54.498;18.544;2023-07-24T10:25:32;3.30;;;2.60;;
71204;SDS011;58935;54.498;18.544;2023-07-24T10:28:06;3.20;;;2.90;;
71204;SDS011;58935;54.498;18.544;2023-07-24T10:30:36;8.40;;;3.00;;
71204;SDS011;58935;54.498;18.544;2023-07-24T10:33:11;3.30;;;2.90;;
71204;SDS011;58935;54.498;18.544;2023-07-24T10:35:44;3.00;;;2.70;;
71204;SDS011;58935;54.498;18.544;2023-07-24T10:38:13;3.30;;;2.90;;
71204;SDS011;58935;54.498;18.544;2023-07-24T10:40:43;6.10;;;3.30;;
71204;SDS011;58935;54.498;18.544;2023-07-24T10:43:11;8.50;;;2.90;;
71204;SDS011;58935;54.498;18.544;2023-07-24T10:45:53;4.00;;;2.80;;
71204;SDS011;58935;54.498;18.544;2023-07-24T10:48:21;2.90;;;2.60;;
71204;SDS011;58935;54.498;18.544;2023-07-24T10:50:49;3.00;;;2.80;;
71204;SDS011;58935;54.498;18.544;2023-07-24T10:53:17;3.00;;;2.70;;
71204;SDS011;58935;54.498;18.544;2023-07-24T10:55:45;4.90;;;2.20;;
71204;SDS011;58935;54.498;18.544;2023-07-24T10:58:13;3.10;;;2.80;;
71204;SDS011;58935;54.498;18.544;2023-07-24T11:00:40;5.50;;;2.50;;
71204;SDS011;58935;54.498;18.544;2023-07-24T11:03:10;3.00;;;2.60;;
71204;SDS011;58935;54.498;18.544;2023-07-24T11:05:40;3.20;;;2.50;;
71204;SDS011;58935;54.498;18.544;2023-07-24T11:08:10;3.70;;;2.60;;
71204;SDS011;58935;54.498;18.544;2023-07-24T11:10:51;3.50;;;3.20;;
71204;SDS011;58935;54.498;18.544;2023-07-24T11:13:20;3.90;;;2.70;;
71204;SDS011;58935;54.498;18.544;2023-07-24T11:15:51;5.40;;;2.30;;
71204;SDS011;58935;54.498;18.544;2023-07-24T11:18:18;5.30;;;2.90;;
71204;SDS011;58935;54.498;18.544;2023-07-24T11:20:54;8.10;;;2.90;;
71204;SDS011;58935;54.498;18.544;2023-07-24T11:23:21;3.50;;;2.40;;
71204;SDS011;58935;54.498;18.544;2023-07-24T11:25:53;4.60;;;2.90;;
71204;SDS011;58935;54.498;18.544;2023-07-24T11:28:19;5.20;;;2.80;;
71204;SDS011;58935;54.498;18.544;2023-07-24T11:30:45;4.70;;;2.70;;
71204;SDS011;58935;54.498;18.544;2023-07-24T11:33:14;3.80;;;2.60;;
71204;SDS011;58935;54.498;18.544;2023-07-24T11:35:41;3.00;;;2.70;;
71204;SDS011;58935;54.498;18.544;2023-07-24T11:38:10;12.00;;;2.60;;
71204;SDS011;58935;54.498;18.544;2023-07-24T11:40:38;4.00;;;2.60;;
71204;SDS011;58935;54.498;18.544;2023-07-24T11:43:15;4.60;;;2.80;;
71204;SDS011;58935;54.498;18.544;2023-07-24T11:45:42;3.30;;;2.50;;
71204;SDS011;58935;54.498;18.544;2023-07-24T11:48:09;2.70;;;2.50;;
71204;SDS011;58935;54.498;18.544;2023-07-24T11:50:48;5.80;;;2.80;;
71204;SDS011;58935;54.498;18.544;2023-07-24T11:53:22;5.60;;;2.80;;
71204;SDS011;58935;54.498;18.544;2023-07-24T11:55:55;3.70;;;2.60;;
71204;SDS011;58935;54.498;18.544;2023-07-24T11:58:28;2.80;;;2.40;;
71204;SDS011;58935;54.498;18.544;2023-07-24T12:00:55;10.50;;;3.10;;
71204;SDS011;58935;54.498;18.544;2023-07-24T12:03:26;4.10;;;2.80;;
71204;SDS011;58935;54.498;18.544;2023-07-24T12:05:53;2.50;;;2.30;;
71204;SDS011;58935;54.498;18.544;2023-07-24T12:08:33;4.40;;;2.40;;
71204;SDS011;58935;54.498;18.544;2023-07-24T12:11:00;3.20;;;2.30;;
71204;SDS011;58935;54.498;18.544;2023-07-24T12:13:27;4.50;;;2.40;;
71204;SDS011;58935;54.498;18.544;2023-07-24T12:15:53;5.10;;;2.50;;
71204;SDS011;58935;54.498;18.544;2023-07-24T12:18:19;2.60;;;2.40;;
71204;SDS011;58935;54.498;18.544;2023-07-24T12:20:44;3.50;;;2.30;;
71204;SDS011;58935;54.498;18.544;2023-07-24T12:23:09;3.00;;;2.40;;
71204;SDS011;58935;54.498;18.544;2023-07-24T12:25:35;3.80;;;2.50;;
71204;SDS011;58935;54.498;18.544;2023-07-24T12:28:00;6.10;;;2.50;;
71204;SDS011;58935;54.498;18.544;2023-07-24T12:30:26;3.40;;;2.80;;
71204;SDS011;58935;54.498;18.544;2023-07-24T12:32:51;3.70;;;2.50;;
71204;SDS011;58935;54.498;18.544;2023-07-24T12:35:16;3.90;;;2.80;;
71204;SDS011;58935;54.498;18.544;2023-07-24T12:37:43;3.50;;;2.60;;
71204;SDS011;58935;54.498;18.544;2023-07-24T12:40:10;7.00;;;2.90;;
71204;SDS011;58935;54.498;18.544;2023-07-24T12:42:36;4.50;;;2.80;;
71204;SDS011;58935;54.498;18.544;2023-07-24T12:45:02;2.70;;;2.50;;
71204;SDS011;58935;54.498;18.544;2023-07-24T12:47:29;2.60;;;2.40;;
71204;SDS011;58935;54.498;18.544;2023-07-24T12:49:55;3.90;;;2.30;;
71204;SDS011;58935;54.498;18.544;2023-07-24T12:52:21;5.60;;;2.50;;
71204;SDS011;58935;54.498;18.544;2023-07-24T12:54:47;8.80;;;2.70;;
71204;SDS011;58935;54.498;18.544;2023-07-24T12:57:12;3.20;;;2.20;;
71204;SDS011;58935;54.498;18.544;2023-07-24T12:59:37;4.00;;;2.20;;
71204;SDS011;58935;54.498;18.544;2023-07-24T13:02:03;4.00;;;2.70;;
71204;SDS011;58935;54.498;18.544;2023-07-24T13:04:28;2.30;;;2.10;;
71204;SDS011;58935;54.498;18.544;2023-07-24T13:06:53;2.20;;;2.10;;
71204;SDS011;58935;54.498;18.544;2023-07-24T13:09:19;5.50;;;2.30;;
71204;SDS011;58935;54.498;18.544;2023-07-24T13:11:45;3.30;;;2.50;;
71204;SDS011;58935;54.498;18.544;2023-07-24T13:14:14;6.10;;;2.30;;
71204;SDS011;58935;54.498;18.544;2023-07-24T13:16:40;4.00;;;2.50;;
71204;SDS011;58935;54.498;18.544;2023-07-24T13:19:05;2.70;;;2.50;;
71204;SDS011;58935;54.498;18.544;2023-07-24T13:21:30;2.20;;;2.10;;
71204;SDS011;58935;54.498;18.544;2023-07-24T13:23:56;2.40;;;2.20;;
71204;SDS011;58935;54.498;18.544;2023-07-24T13:26:22;8.00;;;2.50;;
71204;SDS011;58935;54.498;18.544;2023-07-24T13:28:48;6.30;;;2.50;;
71204;SDS011;58935;54.498;18.544;2023-07-24T13:31:14;5.20;;;2.40;;
71204;SDS011;58935;54.498;18.544;2023-07-24T13:33:45;3.80;;;2.30;;
71204;SDS011;58935;54.498;18.544;2023-07-24T13:36:11;2.50;;;2.20;;
71204;SDS011;58935;54.498;18.544;2023-07-24T13:38:37;2.40;;;2.00;;
71204;SDS011;58935;54.498;18.544;2023-07-24T13:41:03;6.20;;;2.30;;
71204;SDS011;58935;54.498;18.544;2023-07-24T13:43:30;2.70;;;2.50;;
71204;SDS011;58935;54.498;18.544;2023-07-24T13:45:56;2.30;;;2.10;;
71204;SDS011;58935;54.498;18.544;2023-07-24T13:48:22;7.20;;;2.00;;
71204;SDS011;58935;54.498;18.544;2023-07-24T13:50:49;3.00;;;2.10;;
71204;SDS011;58935;54.498;18.544;2023-07-24T13:53:15;4.20;;;2.20;;
71204;SDS011;58935;54.498;18.544;2023-07-24T13:55:41;2.50;;;2.00;;
71204;SDS011;58935;54.498;18.544;2023-07-24T13:58:06;2.50;;;2.10;;
71204;SDS011;58935;54.498;18.544;2023-07-24T14:00:31;4.70;;;2.20;;
71204;SDS011;58935;54.498;18.544;2023-07-24T14:02:57;3.70;;;1.90;;
71204;SDS011;58935;54.498;18.544;2023-07-24T14:05:23;3.10;;;2.00;;
71204;SDS011;58935;54.498;18.544;2023-07-24T14:07:49;5.50;;;2.70;;
71204;SDS011;58935;54.498;18.544;2023-07-24T14:10:14;2.10;;;1.90;;
71204;SDS011;58935;54.498;18.544;2023-07-24T14:12:39;2.90;;;2.00;;
71204;SDS011;58935;54.498;18.544;2023-07-24T14:15:05;4.60;;;1.90;;
71204;SDS011;58935;54.498;18.544;2023-07-24T14:17:31;7.50;;;2.70;;
71204;SDS011;58935;54.498;18.544;2023-07-24T14:19:56;2.60;;;2.00;;
71204;SDS011;58935;54.498;18.544;2023-07-24T14:22:21;3.70;;;2.40;;
71204;SDS011;58935;54.498;18.544;2023-07-24T14:24:47;3.00;;;2.20;;
71204;SDS011;58935;54.498;18.544;2023-07-24T14:27:13;6.20;;;2.70;;
71204;SDS011;58935;54.498;18.544;2023-07-24T14:29:39;4.00;;;2.60;;
71204;SDS011;58935;54.498;18.544;2023-07-24T14:32:05;4.30;;;2.50;;
71204;SDS011;58935;54.498;18.544;2023-07-24T14:34:31;2.80;;;2.50;;
71204;SDS011;58935;54.498;18.544;2023-07-24T14:36:57;6.80;;;2.80;;